Time;durP1;ratioP1;P1;durP2;ratioP2;P2;SDS_P1;SDS_P2;PMS_P1;PMS_P2;Temp;Humidity;BMP_temperature;BMP_pressure;BME280_temperature;BME280_humidity;BME280_pressure;Samples;Min_cycle;Max_cycle;Signal;HPM_P1;HPM_P2
2023/12/30 00:02:09;;;;;;;;;;;14.40;99.90;;;;;;5093218;28;19908;-86
2023/12/30 00:04:36;;;;;;;;;;;14.30;99.90;;;;;;5094322;28;19908;-86
2023/12/30 00:07:02;;;;;;;;;;;14.20;99.90;;;;;;5092598;28;19915;-85
2023/12/30 00:09:28;;;;;;;;;;;14.20;99.90;;;;;;5092934;28;19931;-85
2023/12/30 00:11:54;;;;;;;;;;;14.20;99.90;;;;;;5092664;28;19908;-85
2023/12/30 00:14:20;;;;;;;;;;;14.10;99.90;;;;;;5092800;28;20324;-85
2023/12/30 00:16:46;;;;;;;;;;;14.10;99.90;;;;;;5092366;28;19913;-86
2023/12/30 00:19:12;;;;;;;;;;;14.20;99.90;;;;;;5094068;28;20308;-85
2023/12/30 00:21:38;;;;;;;;;;;14.10;99.90;;;;;;5092369;28;19962;-86
2023/12/30 00:24:04;;;;;;;;;;;14.10;99.90;;;;;;5094080;28;19915;-85
2023/12/30 00:26:30;;;;;;;;;;;14.10;99.90;;;;;;5092103;28;20026;-85
2023/12/30 00:28:55;;;;;;;;;;;14.10;99.90;;;;;;5092327;28;20360;-85
2023/12/30 00:31:29;;;;;;;;;;;14.10;99.90;;;;;;5093766;28;19922;-86
2023/12/30 00:33:57;;;;;;;;;;;14.10;99.90;;;;;;5094032;28;19908;-86
2023/12/30 00:36:22;;;;;;;;;;;14.00;99.90;;;;;;5092224;28;19916;-85
2023/12/30 00:38:49;;;;;;;;;;;14.00;99.90;;;;;;5092779;28;19919;-86
2023/12/30 00:41:14;;;;;;;;;;;14.10;99.90;;;;;;5092439;28;20049;-86
2023/12/30 00:43:42;;;;;;;;;;;14.00;99.90;;;;;;5095127;28;20348;-85
2023/12/30 00:46:08;;;;;;;;;;;14.00;99.90;;;;;;5095304;28;20026;-85
2023/12/30 00:48:34;;;;;;;;;;;14.00;99.90;;;;;;5093796;28;19915;-86
2023/12/30 00:51:01;;;;;;;;;;;14.00;99.90;;;;;;5093624;28;19916;-85
2023/12/30 00:53:27;;;;;;;;;;;13.90;99.90;;;;;;5094175;28;19999;-86
2023/12/30 00:55:56;;;;;;;;;;;14.00;99.90;;;;;;5092089;28;19908;-85
2023/12/30 00:58:22;;;;;;;;;;;14.00;99.90;;;;;;5093828;28;19911;-86
2023/12/30 01:00:51;;;;;;;;;;;14.00;99.90;;;;;;5091956;28;19926;-85
2023/12/30 01:03:17;;;;;;;;;;;14.00;99.90;;;;;;5091347;28;19977;-84
2023/12/30 01:05:44;;;;;;;;;;;14.00;99.90;;;;;;5093011;28;19916;-85
2023/12/30 01:08:10;;;;;;;;;;;14.00;99.90;;;;;;5091053;28;19924;-80
2023/12/30 01:10:35;;;;;;;;;;;14.00;99.90;;;;;;5092573;28;20397;-86
2023/12/30 01:13:01;;;;;;;;;;;14.00;99.90;;;;;;5092716;28;19908;-84
2023/12/30 01:15:27;;;;;;;;;;;14.10;99.90;;;;;;5091236;28;19953;-85
2023/12/30 01:17:54;;;;;;;;;;;14.10;99.90;;;;;;5093304;28;19908;-85
2023/12/30 01:20:20;;;;;;;;;;;14.10;99.90;;;;;;5093003;28;19918;-85
2023/12/30 01:22:45;;;;;;;;;;;14.10;99.90;;;;;;5091872;28;19908;-84
2023/12/30 01:25:11;;;;;;;;;;;14.20;99.90;;;;;;5093800;28;19909;-83
2023/12/30 01:27:37;;;;;;;;;;;14.10;99.90;;;;;;5093900;28;19919;-84
2023/12/30 01:30:03;;;;;;;;;;;14.20;99.90;;;;;;5092432;28;19946;-84
2023/12/30 01:32:29;;;;;;;;;;;14.20;99.90;;;;;;5092348;28;19934;-84
2023/12/30 01:34:55;;;;;;;;;;;14.20;99.90;;;;;;5092283;28;20364;-86
2023/12/30 01:37:21;;;;;;;;;;;14.30;99.90;;;;;;5092172;28;19920;-85
2023/12/30 01:39:47;;;;;;;;;;;14.20;99.90;;;;;;5092318;28;19908;-86
2023/12/30 01:42:12;;;;;;;;;;;14.20;99.90;;;;;;5092425;28;19909;-86
2023/12/30 01:44:38;;;;;;;;;;;14.30;99.90;;;;;;5092189;28;19915;-86
2023/12/30 01:47:05;;;;;;;;;;;14.30;99.90;;;;;;5092411;28;19908;-86
2023/12/30 01:49:30;;;;;;;;;;;14.30;99.90;;;;;;5090271;28;20080;-85
2023/12/30 01:51:56;;;;;;;;;;;14.30;99.90;;;;;;5092600;28;19907;-86
2023/12/30 01:54:22;;;;;;;;;;;14.40;99.90;;;;;;5090224;28;19947;-86
2023/12/30 01:56:49;;;;;;;;;;;14.40;99.90;;;;;;5090692;28;19971;-87
2023/12/30 01:59:15;;;;;;;;;;;14.30;99.90;;;;;;5092418;28;19948;-86
2023/12/30 02:01:41;;;;;;;;;;;14.30;99.90;;;;;;5090566;28;19984;-85
2023/12/30 02:04:06;;;;;;;;;;;14.30;99.90;;;;;;5090438;28;20359;-86
2023/12/30 02:06:32;;;;;;;;;;;14.30;99.90;;;;;;5092044;28;19909;-85
2023/12/30 02:08:58;;;;;;;;;;;14.30;99.90;;;;;;5090283;28;19938;-84
2023/12/30 02:11:24;;;;;;;;;;;14.30;99.90;;;;;;5089499;28;19916;-87
2023/12/30 02:13:50;;;;;;;;;;;14.30;99.90;;;;;;5090031;28;19923;-85
2023/12/30 02:16:15;;;;;;;;;;;14.30;99.90;;;;;;5089771;28;19956;-86
2023/12/30 02:18:41;;;;;;;;;;;14.20;99.90;;;;;;5091936;28;20292;-85
2023/12/30 02:21:07;;;;;;;;;;;14.20;99.90;;;;;;5090200;28;19934;-86
2023/12/30 02:23:33;;;;;;;;;;;14.20;99.90;;;;;;5093063;28;20356;-85
2023/12/30 02:25:59;;;;;;;;;;;14.20;99.90;;;;;;5091797;28;19908;-85
2023/12/30 02:28:24;;;;;;;;;;;14.30;99.90;;;;;;5092349;28;19912;-85
2023/12/30 02:30:50;;;;;;;;;;;14.20;99.90;;;;;;5090285;28;19984;-84
2023/12/30 02:33:16;;;;;;;;;;;14.20;99.90;;;;;;5092340;28;20307;-86
2023/12/30 02:35:42;;;;;;;;;;;14.10;99.90;;;;;;5089778;28;20046;-85
2023/12/30 02:38:08;;;;;;;;;;;14.10;99.90;;;;;;5090374;28;19960;-86
2023/12/30 02:40:34;;;;;;;;;;;14.00;99.90;;;;;;5090180;28;19959;-85
2023/12/30 02:43:00;;;;;;;;;;;14.00;99.90;;;;;;5090053;28;19912;-85
2023/12/30 02:45:26;;;;;;;;;;;14.00;99.90;;;;;;5091858;28;19912;-85
2023/12/30 02:47:52;;;;;;;;;;;14.00;99.90;;;;;;5090393;28;20032;-86
2023/12/30 02:50:17;;;;;;;;;;;13.90;99.90;;;;;;5091819;28;19916;-86
2023/12/30 02:52:43;;;;;;;;;;;13.90;99.90;;;;;;5092117;28;20007;-85
2023/12/30 02:55:09;;;;;;;;;;;13.90;99.90;;;;;;5090465;28;19956;-85
2023/12/30 02:57:35;;;;;;;;;;;14.00;99.90;;;;;;5091584;28;19940;-85
2023/12/30 03:00:01;;;;;;;;;;;14.00;99.90;;;;;;5091365;28;20322;-85
2023/12/30 03:02:26;;;;;;;;;;;14.00;99.90;;;;;;5090386;28;20044;-83
2023/12/30 03:04:52;;;;;;;;;;;14.00;99.90;;;;;;5089744;28;19920;-85
2023/12/30 03:07:18;;;;;;;;;;;13.90;99.90;;;;;;5089264;28;19912;-85
2023/12/30 03:09:44;;;;;;;;;;;13.90;99.90;;;;;;5091445;28;20355;-85
2023/12/30 03:12:10;;;;;;;;;;;13.90;99.90;;;;;;5089291;28;19919;-85
2023/12/30 03:14:35;;;;;;;;;;;13.80;99.90;;;;;;5089033;28;19938;-85
2023/12/30 03:17:01;;;;;;;;;;;13.80;99.90;;;;;;5089307;28;19951;-84
2023/12/30 03:19:27;;;;;;;;;;;13.80;99.90;;;;;;5089360;28;20195;-84
2023/12/30 03:21:54;;;;;;;;;;;13.80;99.90;;;;;;5089124;28;19908;-85
2023/12/30 03:24:20;;;;;;;;;;;13.90;99.90;;;;;;5089800;28;19978;-85
2023/12/30 03:26:45;;;;;;;;;;;13.90;99.90;;;;;;5088578;28;19947;-85
2023/12/30 03:29:11;;;;;;;;;;;13.90;99.90;;;;;;5088626;28;19923;-85
2023/12/30 03:31:37;;;;;;;;;;;13.90;99.90;;;;;;5089108;28;20356;-84
2023/12/30 03:34:03;;;;;;;;;;;13.90;99.90;;;;;;5090174;28;20344;-85
2023/12/30 03:36:29;;;;;;;;;;;14.00;99.90;;;;;;5088702;28;20407;-84
2023/12/30 03:38:56;;;;;;;;;;;14.10;99.90;;;;;;5090802;28;20221;-85
2023/12/30 03:41:22;;;;;;;;;;;14.10;99.90;;;;;;5090098;28;19915;-84
2023/12/30 03:43:49;;;;;;;;;;;14.20;99.90;;;;;;5089914;28;20378;-84
2023/12/30 03:46:15;;;;;;;;;;;14.20;99.90;;;;;;5088477;28;19908;-84
2023/12/30 03:48:40;;;;;;;;;;;14.30;99.90;;;;;;5088658;28;20387;-83
2023/12/30 03:51:06;;;;;;;;;;;14.30;99.90;;;;;;5088445;28;19912;-85
2023/12/30 03:53:32;;;;;;;;;;;14.30;99.90;;;;;;5088232;28;19920;-84
2023/12/30 03:55:59;;;;;;;;;;;14.20;99.90;;;;;;5088574;28;20311;-85
2023/12/30 03:58:24;;;;;;;;;;;14.20;99.90;;;;;;5090012;28;19909;-84
2023/12/30 04:00:50;;;;;;;;;;;14.20;99.90;;;;;;5089734;28;19950;-85
2023/12/30 04:03:16;;;;;;;;;;;14.20;99.90;;;;;;5088593;28;19920;-84
2023/12/30 04:05:43;;;;;;;;;;;14.20;99.90;;;;;;5089251;28;19908;-85
2023/12/30 04:08:10;;;;;;;;;;;14.10;99.90;;;;;;5090506;28;19908;-85
2023/12/30 04:10:35;;;;;;;;;;;14.10;99.90;;;;;;5089075;28;19996;-84
2023/12/30 04:13:01;;;;;;;;;;;14.10;99.90;;;;;;5088900;28;19915;-85
2023/12/30 04:15:28;;;;;;;;;;;14.10;99.90;;;;;;5088712;28;19916;-84
2023/12/30 04:17:54;;;;;;;;;;;14.20;99.90;;;;;;5087755;28;19931;-85
2023/12/30 04:20:20;;;;;;;;;;;14.30;99.90;;;;;;5087931;28;20224;-84
2023/12/30 04:22:46;;;;;;;;;;;14.20;99.90;;;;;;5087958;28;19927;-85
2023/12/30 04:25:12;;;;;;;;;;;14.20;99.90;;;;;;5090288;28;19916;-85
2023/12/30 04:27:37;;;;;;;;;;;14.30;99.90;;;;;;5090391;28;20386;-85
2023/12/30 04:30:03;;;;;;;;;;;14.20;99.90;;;;;;5089391;28;19916;-85
2023/12/30 04:32:29;;;;;;;;;;;14.20;99.90;;;;;;5089344;28;19908;-85
2023/12/30 04:34:55;;;;;;;;;;;14.30;99.90;;;;;;5091957;28;19988;-85
2023/12/30 04:37:21;;;;;;;;;;;14.20;99.90;;;;;;5094414;28;19927;-85
2023/12/30 04:39:47;;;;;;;;;;;14.30;99.90;;;;;;5093179;28;20331;-84
2023/12/30 04:42:14;;;;;;;;;;;14.30;99.90;;;;;;5094603;28;20333;-85
2023/12/30 04:44:40;;;;;;;;;;;14.40;99.90;;;;;;5094911;28;19916;-85
2023/12/30 04:47:06;;;;;;;;;;;14.40;99.90;;;;;;5092748;28;19953;-85
2023/12/30 04:49:32;;;;;;;;;;;14.40;99.90;;;;;;5094386;28;19920;-85
2023/12/30 04:51:58;;;;;;;;;;;14.50;99.90;;;;;;5095205;28;19959;-85
2023/12/30 04:54:25;;;;;;;;;;;14.50;99.90;;;;;;5095387;28;19909;-85
2023/12/30 04:56:51;;;;;;;;;;;14.50;99.90;;;;;;5096260;28;19912;-85
2023/12/30 04:59:18;;;;;;;;;;;14.50;99.90;;;;;;5093841;28;19907;-85
2023/12/30 05:01:43;;;;;;;;;;;14.40;99.90;;;;;;5093943;28;19915;-85
2023/12/30 05:04:09;;;;;;;;;;;14.40;99.90;;;;;;5093785;28;19908;-84
2023/12/30 05:06:36;;;;;;;;;;;14.40;99.90;;;;;;5094843;28;19947;-84
2023/12/30 05:09:03;;;;;;;;;;;14.50;99.90;;;;;;5093338;28;20236;-85
2023/12/30 05:11:29;;;;;;;;;;;14.40;99.90;;;;;;5094969;28;19919;-85
2023/12/30 05:13:55;;;;;;;;;;;14.50;99.90;;;;;;5095122;28;20487;-84
2023/12/30 05:16:21;;;;;;;;;;;14.50;99.90;;;;;;5095165;28;20010;-84
2023/12/30 05:18:46;;;;;;;;;;;14.50;99.90;;;;;;5095460;28;19996;-85
2023/12/30 05:21:16;;;;;;;;;;;14.50;99.90;;;;;;5094972;28;19985;-85
2023/12/30 05:23:42;;;;;;;;;;;14.50;99.90;;;;;;5095495;28;19919;-84
2023/12/30 05:26:09;;;;;;;;;;;14.40;99.90;;;;;;5096175;28;19939;-86
2023/12/30 05:28:35;;;;;;;;;;;14.40;99.90;;;;;;5095512;28;19908;-85
2023/12/30 05:31:01;;;;;;;;;;;14.30;99.90;;;;;;5094715;28;20240;-84
2023/12/30 05:33:27;;;;;;;;;;;14.30;99.90;;;;;;5095840;28;19908;-85
2023/12/30 05:35:53;;;;;;;;;;;14.40;99.90;;;;;;5095423;28;19908;-85
2023/12/30 05:38:19;;;;;;;;;;;14.40;99.90;;;;;;5095806;28;19916;-85
2023/12/30 05:40:45;;;;;;;;;;;14.50;99.90;;;;;;5095529;28;19916;-85
2023/12/30 05:43:10;;;;;;;;;;;14.50;99.90;;;;;;5095541;28;19912;-85
2023/12/30 05:45:36;;;;;;;;;;;14.40;99.90;;;;;;5095291;28;19908;-85
2023/12/30 05:48:02;;;;;;;;;;;14.50;99.90;;;;;;5093212;28;20328;-84
2023/12/30 05:50:28;;;;;;;;;;;14.40;99.90;;;;;;5093898;28;19923;-85
2023/12/30 05:52:54;;;;;;;;;;;14.50;99.90;;;;;;5095291;28;20248;-85
2023/12/30 05:55:20;;;;;;;;;;;14.50;99.90;;;;;;5095279;28;20405;-86
2023/12/30 05:57:47;;;;;;;;;;;14.60;99.90;;;;;;5095615;28;19908;-84
2023/12/30 06:00:13;;;;;;;;;;;14.60;99.90;;;;;;5093763;28;20003;-85
2023/12/30 06:02:40;;;;;;;;;;;14.60;99.90;;;;;;5094818;28;19908;-85
2023/12/30 06:05:06;;;;;;;;;;;14.50;99.90;;;;;;5093435;28;19908;-85
2023/12/30 06:07:32;;;;;;;;;;;14.50;99.90;;;;;;5093431;28;20007;-83
2023/12/30 06:09:57;;;;;;;;;;;14.40;99.90;;;;;;5095054;28;19977;-85
2023/12/30 06:12:23;;;;;;;;;;;14.30;99.90;;;;;;5095010;28;19908;-84
2023/12/30 06:14:49;;;;;;;;;;;14.40;99.90;;;;;;5093691;28;19908;-85
2023/12/30 06:17:15;;;;;;;;;;;14.40;99.90;;;;;;5093378;28;20320;-85
2023/12/30 06:19:41;;;;;;;;;;;14.40;99.90;;;;;;5094639;28;19912;-84
2023/12/30 06:22:06;;;;;;;;;;;14.30;99.90;;;;;;5094597;28;20328;-85
2023/12/30 06:24:33;;;;;;;;;;;14.30;99.90;;;;;;5094850;28;19908;-85
2023/12/30 06:26:59;;;;;;;;;;;14.40;99.90;;;;;;5093494;28;19908;-86
2023/12/30 06:29:26;;;;;;;;;;;14.40;99.90;;;;;;5100187;28;19938;-85
2023/12/30 06:31:53;;;;;;;;;;;14.30;99.90;;;;;;5097478;28;19908;-85
2023/12/30 06:34:19;;;;;;;;;;;14.40;99.90;;;;;;5096589;28;19912;-85
2023/12/30 06:36:45;;;;;;;;;;;14.40;99.90;;;;;;5092896;28;19931;-85
2023/12/30 06:39:12;;;;;;;;;;;14.50;99.90;;;;;;5094053;28;19916;-84
2023/12/30 06:41:39;;;;;;;;;;;14.50;99.90;;;;;;5094017;28;19909;-85
2023/12/30 06:44:04;;;;;;;;;;;14.50;99.90;;;;;;5092318;28;20276;-84
2023/12/30 06:46:30;;;;;;;;;;;14.50;99.90;;;;;;5093264;28;19908;-83
2023/12/30 06:48:56;;;;;;;;;;;14.60;99.90;;;;;;5093305;28;20040;-85
2023/12/30 06:51:22;;;;;;;;;;;14.60;99.90;;;;;;5091888;28;19912;-84
2023/12/30 06:53:48;;;;;;;;;;;14.60;99.90;;;;;;5092451;28;19930;-86
2023/12/30 06:56:13;;;;;;;;;;;14.60;99.90;;;;;;5090888;28;20265;-85
2023/12/30 06:58:45;;;;;;;;;;;14.50;99.90;;;;;;5093245;28;19990;-86
2023/12/30 07:01:14;;;;;;;;;;;14.50;99.90;;;;;;5093299;28;20256;-86
2023/12/30 07:03:40;;;;;;;;;;;14.50;99.90;;;;;;5091249;28;19985;-83
2023/12/30 07:06:06;;;;;;;;;;;14.40;99.90;;;;;;5091218;28;19908;-85
2023/12/30 07:08:32;;;;;;;;;;;14.50;99.90;;;;;;5092754;28;19986;-80
2023/12/30 07:10:58;;;;;;;;;;;14.50;99.90;;;;;;5091111;28;19916;-85
2023/12/30 07:13:24;;;;;;;;;;;14.50;99.90;;;;;;5091056;28;19908;-85
2023/12/30 07:15:52;;;;;;;;;;;14.50;99.90;;;;;;5091011;28;20368;-85
2023/12/30 07:18:19;;;;;;;;;;;14.40;99.90;;;;;;5093122;28;19908;-85
2023/12/30 07:20:45;;;;;;;;;;;14.50;99.90;;;;;;5091560;28;19960;-85
2023/12/30 07:23:11;;;;;;;;;;;14.50;99.90;;;;;;5092820;28;19916;-85
2023/12/30 07:25:37;;;;;;;;;;;14.50;99.90;;;;;;5091447;28;20360;-85
2023/12/30 07:28:03;;;;;;;;;;;14.60;99.90;;;;;;5091551;28;19960;-85
2023/12/30 07:30:29;;;;;;;;;;;14.80;99.90;;;;;;5092681;28;20369;-85
2023/12/30 07:32:56;;;;;;;;;;;15.00;99.90;;;;;;5090970;28;19937;-86
2023/12/30 07:35:22;;;;;;;;;;;15.10;99.90;;;;;;5072479;28;19908;-85
2023/12/30 07:37:48;;;;;;;;;;;15.40;99.90;;;;;;5072267;28;19928;-85
2023/12/30 07:40:14;;;;;;;;;;;15.70;99.90;;;;;;5073017;28;19908;-85
2023/12/30 07:42:40;;;;;;;;;;;16.10;99.90;;;;;;5071033;28;19909;-85
2023/12/30 07:45:09;;;;;;;;;;;16.30;99.90;;;;;;5071253;28;19908;-85
2023/12/30 07:47:35;;;;;;;;;;;16.40;99.90;;;;;;5072564;28;19914;-86
2023/12/30 07:50:01;;;;;;;;;;;16.60;99.90;;;;;;5073380;28;19920;-85
2023/12/30 07:52:26;;;;;;;;;;;17.00;99.90;;;;;;5070913;28;19999;-85
2023/12/30 07:54:52;;;;;;;;;;;17.30;99.90;;;;;;5071028;28;19909;-85
2023/12/30 07:57:18;;;;;;;;;;;17.50;99.90;;;;;;5070743;28;19909;-86
2023/12/30 07:59:44;;;;;;;;;;;17.50;99.90;;;;;;5072486;28;19908;-85
2023/12/30 08:02:10;;;;;;;;;;;17.30;99.90;;;;;;5072893;28;20361;-86
2023/12/30 08:04:36;;;;;;;;;;;17.30;99.90;;;;;;5086937;28;19915;-86
2023/12/30 08:07:02;;;;;;;;;;;17.20;99.90;;;;;;5091116;28;19916;-86
2023/12/30 08:09:27;;;;;;;;;;;17.00;99.90;;;;;;5093073;28;20282;-86
2023/12/30 08:11:53;;;;;;;;;;;16.90;99.90;;;;;;5096368;28;19912;-86
2023/12/30 08:14:19;;;;;;;;;;;17.00;99.90;;;;;;5096242;28;19908;-86
2023/12/30 08:16:45;;;;;;;;;;;17.10;99.90;;;;;;5094831;28;19998;-86
2023/12/30 08:19:11;;;;;;;;;;;17.20;99.90;;;;;;5096482;28;19953;-85
2023/12/30 08:21:37;;;;;;;;;;;17.30;99.90;;;;;;5094980;28;19950;-86
2023/12/30 08:24:06;;;;;;;;;;;17.40;99.90;;;;;;5096334;28;19908;-86
2023/12/30 08:26:32;;;;;;;;;;;17.50;99.90;;;;;;5097085;28;20357;-85
2023/12/30 08:28:57;;;;;;;;;;;17.40;99.90;;;;;;5095973;28;19908;-84
2023/12/30 08:31:23;;;;;;;;;;;17.30;99.90;;;;;;5096907;28;19916;-86
2023/12/30 08:33:50;;;;;;;;;;;17.20;99.90;;;;;;5094598;28;19908;-86
2023/12/30 08:36:16;;;;;;;;;;;17.20;99.90;;;;;;5094468;28;19916;-86
2023/12/30 08:38:42;;;;;;;;;;;17.20;99.90;;;;;;5094504;28;19919;-86
2023/12/30 08:41:14;;;;;;;;;;;17.10;99.90;;;;;;5094338;28;20004;-86
2023/12/30 08:43:41;;;;;;;;;;;17.00;99.90;;;;;;5094340;28;19995;-85
2023/12/30 08:46:08;;;;;;;;;;;17.00;99.90;;;;;;5093853;28;19915;-87
2023/12/30 08:48:34;;;;;;;;;;;16.80;99.90;;;;;;5095110;28;19931;-85
2023/12/30 08:50:59;;;;;;;;;;;16.90;99.90;;;;;;5094761;28;20345;-85
2023/12/30 08:53:25;;;;;;;;;;;17.10;99.90;;;;;;5095480;28;19908;-85
2023/12/30 08:55:52;;;;;;;;;;;17.20;99.90;;;;;;5094911;28;20010;-86
2023/12/30 08:58:18;;;;;;;;;;;17.60;99.90;;;;;;5092912;28;19991;-85
2023/12/30 09:00:49;;;;;;;;;;;18.00;99.90;;;;;;5094858;28;20270;-85
2023/12/30 09:03:15;;;;;;;;;;;18.40;99.90;;;;;;5094365;28;19912;-86
2023/12/30 09:05:41;;;;;;;;;;;18.60;99.90;;;;;;5093696;28;19977;-86
2023/12/30 09:08:07;;;;;;;;;;;18.70;99.90;;;;;;5094729;28;19909;-85
2023/12/30 09:10:32;;;;;;;;;;;18.80;99.90;;;;;;5092387;28;20490;-86
2023/12/30 09:12:58;;;;;;;;;;;18.50;99.90;;;;;;5093867;28;20010;-85
2023/12/30 09:15:25;;;;;;;;;;;18.40;99.90;;;;;;5094232;28;19919;-86
2023/12/30 09:17:51;;;;;;;;;;;18.30;99.90;;;;;;5093138;28;20310;-86
2023/12/30 09:20:17;;;;;;;;;;;18.40;99.90;;;;;;5094977;28;19915;-86
2023/12/30 09:22:42;;;;;;;;;;;18.60;99.90;;;;;;5093599;28;19908;-85
2023/12/30 09:25:08;;;;;;;;;;;18.90;99.90;;;;;;5094961;28;20006;-85
2023/12/30 09:27:34;;;;;;;;;;;19.00;99.90;;;;;;5093027;28;19930;-85
2023/12/30 09:30:00;;;;;;;;;;;19.10;99.90;;;;;;5095123;28;19922;-85
2023/12/30 09:32:26;;;;;;;;;;;19.00;99.90;;;;;;5093190;28;19969;-86
2023/12/30 09:34:53;;;;;;;;;;;18.90;99.90;;;;;;5093020;28;19909;-85
2023/12/30 09:37:20;;;;;;;;;;;18.90;99.90;;;;;;5094295;28;19950;-88
2023/12/30 09:39:47;;;;;;;;;;;19.00;99.90;;;;;;5093124;28;19908;-86
2023/12/30 09:42:12;;;;;;;;;;;19.10;99.90;;;;;;5094277;28;19908;-85
2023/12/30 09:44:39;;;;;;;;;;;19.00;99.90;;;;;;5094237;28;19915;-83
2023/12/30 09:47:10;;;;;;;;;;;19.10;99.90;;;;;;5093052;28;19908;-83
2023/12/30 09:49:37;;;;;;;;;;;19.20;99.90;;;;;;5094587;28;19912;-84
2023/12/30 09:52:05;;;;;;;;;;;19.20;99.90;;;;;;5091313;28;19915;-83
2023/12/30 09:54:30;;;;;;;;;;;19.10;99.90;;;;;;5092651;28;19909;-82
2023/12/30 09:56:59;;;;;;;;;;;19.10;99.90;;;;;;5095140;28;19908;-84
2023/12/30 09:59:26;;;;;;;;;;;19.20;99.90;;;;;;5095667;28;19985;-83
2023/12/30 10:01:54;;;;;;;;;;;19.20;99.90;;;;;;5095466;28;20007;-83
2023/12/30 10:04:20;;;;;;;;;;;19.20;99.90;;;;;;5094651;28;19908;-83
2023/12/30 10:06:47;;;;;;;;;;;19.10;99.90;;;;;;5094871;28;19931;-83
2023/12/30 10:09:13;;;;;;;;;;;18.90;99.90;;;;;;5095023;28;20321;-81
2023/12/30 10:11:39;;;;;;;;;;;18.90;99.90;;;;;;5094959;28;19951;-81
2023/12/30 10:14:04;;;;;;;;;;;19.00;99.90;;;;;;5093136;28;20339;-82
2023/12/30 10:16:30;;;;;;;;;;;19.20;99.90;;;;;;5095126;28;20049;-82
2023/12/30 10:18:56;;;;;;;;;;;19.40;99.90;;;;;;5094547;28;19969;-82
2023/12/30 10:21:22;;;;;;;;;;;19.60;99.90;;;;;;5094890;28;19912;-82
2023/12/30 10:23:51;;;;;;;;;;;19.80;99.90;;;;;;5093227;28;19919;-82
2023/12/30 10:26:17;;;;;;;;;;;20.10;99.90;;;;;;5094493;28;19909;-82
2023/12/30 10:28:44;;;;;;;;;;;20.00;99.90;;;;;;5094273;28;20422;-83
2023/12/30 10:31:11;;;;;;;;;;;20.00;99.90;;;;;;5094110;28;19934;-81
2023/12/30 10:33:37;;;;;;;;;;;20.00;99.90;;;;;;5088168;28;19908;-81
2023/12/30 10:36:09;;;;;;;;;;;20.00;99.90;;;;;;5073895;28;19926;-80
2023/12/30 10:38:35;;;;;;;;;;;19.80;99.90;;;;;;5072631;28;19908;-81
2023/12/30 10:41:01;;;;;;;;;;;19.70;99.90;;;;;;5074089;28;19915;-83
2023/12/30 10:43:27;;;;;;;;;;;19.90;99.90;;;;;;5073541;28;20003;-83
2023/12/30 10:45:58;;;;;;;;;;;20.10;99.90;;;;;;5073814;28;19944;-83
2023/12/30 10:48:29;;;;;;;;;;;20.30;99.90;;;;;;5074283;28;19908;-83
2023/12/30 10:50:55;;;;;;;;;;;20.20;99.90;;;;;;5072491;28;20253;-83
2023/12/30 10:53:44;;;;;;;;;;;20.20;99.90;;;;;;5073559;28;19909;-84
2023/12/30 10:56:11;;;;;;;;;;;20.30;99.90;;;;;;5073876;28;19914;-82
2023/12/30 10:58:39;;;;;;;;;;;20.30;99.90;;;;;;5073286;28;19916;-82
2023/12/30 11:01:05;;;;;;;;;;;20.40;99.90;;;;;;5073532;28;20395;-81
2023/12/30 11:03:34;;;;;;;;;;;20.50;99.90;;;;;;5078724;28;19918;-81
2023/12/30 11:06:18;;;;;;;;;;;20.50;99.90;;;;;;5093561;28;19961;-83
2023/12/30 11:08:44;;;;;;;;;;;20.50;99.90;;;;;;5093810;28;20103;-82
2023/12/30 11:11:12;;;;;;;;;;;20.60;99.90;;;;;;5092044;28;19961;-83
2023/12/30 11:13:41;;;;;;;;;;;20.60;99.90;;;;;;5093374;28;19958;-82
2023/12/30 11:16:12;;;;;;;;;;;20.70;99.90;;;;;;5093156;28;20648;-82
2023/12/30 11:18:46;;;;;;;;;;;20.60;99.90;;;;;;5093596;28;19915;-81
2023/12/30 11:21:12;;;;;;;;;;;20.70;99.90;;;;;;5092136;28;19912;-82
2023/12/30 11:23:38;;;;;;;;;;;20.80;99.90;;;;;;5093532;28;19915;-82
2023/12/30 11:26:12;;;;;;;;;;;20.90;99.90;;;;;;5092038;28;19908;-82
2023/12/30 11:28:38;;;;;;;;;;;20.80;99.90;;;;;;5092166;28;20364;-82
2023/12/30 11:31:04;;;;;;;;;;;20.50;99.90;;;;;;5091991;28;19916;-82
2023/12/30 11:33:29;;;;;;;;;;;20.40;99.90;;;;;;5093183;28;19915;-82
2023/12/30 11:38:59;;;;;;;;;;;20.40;99.90;;;;;;5094092;28;20379;-82
2023/12/30 11:41:26;;;;;;;;;;;20.50;99.90;;;;;;5093547;28;19912;-82
2023/12/30 11:43:54;;;;;;;;;;;20.50;99.90;;;;;;5092477;28;20014;-81
2023/12/30 11:46:20;;;;;;;;;;;20.50;99.90;;;;;;5092859;28;19908;-82
2023/12/30 11:48:46;;;;;;;;;;;20.60;99.90;;;;;;5093059;28;19930;-82
2023/12/30 11:51:25;;;;;;;;;;;20.50;99.90;;;;;;5093499;28;19965;-82
2023/12/30 11:53:51;;;;;;;;;;;20.30;99.90;;;;;;5093087;28;20348;-82
2023/12/30 11:56:19;;;;;;;;;;;20.20;99.90;;;;;;5091896;28;19948;-82
2023/12/30 11:58:45;;;;;;;;;;;20.10;99.90;;;;;;5091612;28;19908;-83
2023/12/30 12:01:12;;;;;;;;;;;20.00;99.90;;;;;;5093262;28;19908;-82
2023/12/30 12:03:37;;;;;;;;;;;20.00;99.90;;;;;;5092824;28;19908;-83
2023/12/30 12:06:03;;;;;;;;;;;19.90;99.90;;;;;;5093015;28;19916;-82
2023/12/30 12:08:29;;;;;;;;;;;19.90;99.90;;;;;;5092795;28;19935;-82
2023/12/30 12:10:56;;;;;;;;;;;20.00;99.90;;;;;;5092886;28;20288;-82
2023/12/30 12:13:24;;;;;;;;;;;20.20;99.90;;;;;;5091324;28;19916;-82
2023/12/30 12:15:54;;;;;;;;;;;20.20;99.90;;;;;;5093306;28;19998;-81
2023/12/30 12:18:20;;;;;;;;;;;20.30;99.90;;;;;;5093452;28;19912;-83
2023/12/30 12:20:46;;;;;;;;;;;20.40;99.90;;;;;;5091771;28;19909;-81
2023/12/30 12:23:12;;;;;;;;;;;20.40;99.90;;;;;;5091456;28;20007;-81
2023/12/30 12:25:39;;;;;;;;;;;20.30;99.90;;;;;;5093487;28;19915;-82
2023/12/30 12:28:11;;;;;;;;;;;20.20;99.90;;;;;;5092915;28;19919;-83
2023/12/30 12:30:37;;;;;;;;;;;20.10;99.90;;;;;;5092880;28;20323;-83
2023/12/30 12:33:03;;;;;;;;;;;20.20;99.90;;;;;;5092863;28;19908;-81
2023/12/30 12:35:30;;;;;;;;;;;20.30;99.90;;;;;;5093682;28;20364;-82
2023/12/30 12:37:59;;;;;;;;;;;20.20;99.90;;;;;;5091540;28;19967;-81
2023/12/30 12:40:25;;;;;;;;;;;20.00;99.90;;;;;;5091778;28;20383;-83
2023/12/30 12:42:51;;;;;;;;;;;19.80;99.90;;;;;;5093387;28;19909;-83
2023/12/30 12:45:17;;;;;;;;;;;19.70;99.90;;;;;;5091878;28;19915;-83
2023/12/30 12:47:44;;;;;;;;;;;19.70;99.90;;;;;;5093956;28;19908;-82
2023/12/30 12:50:10;;;;;;;;;;;19.70;99.90;;;;;;5092706;28;19923;-82
2023/12/30 12:52:36;;;;;;;;;;;19.80;99.90;;;;;;5094609;28;19915;-82
2023/12/30 12:55:02;;;;;;;;;;;19.80;99.90;;;;;;5092865;28;19909;-82
2023/12/30 12:57:28;;;;;;;;;;;19.90;99.90;;;;;;5096942;28;19961;-84
2023/12/30 12:59:54;;;;;;;;;;;20.00;99.90;;;;;;5096174;28;19908;-83
2023/12/30 13:02:20;;;;;;;;;;;19.80;99.90;;;;;;5096002;28;19908;-83
2023/12/30 13:04:46;;;;;;;;;;;19.90;99.90;;;;;;5095900;28;19970;-83
2023/12/30 13:07:11;;;;;;;;;;;20.00;99.90;;;;;;5096252;28;20286;-83
2023/12/30 13:12:22;;;;;;;;;;;20.10;99.90;;;;;;5095722;28;19915;-83
2023/12/30 13:14:49;;;;;;;;;;;20.20;99.90;;;;;;5095716;28;19908;-83
2023/12/30 13:17:15;;;;;;;;;;;20.20;99.90;;;;;;5094362;28;20356;-83
2023/12/30 13:19:41;;;;;;;;;;;20.00;99.90;;;;;;5096247;28;19909;-83
2023/12/30 13:22:07;;;;;;;;;;;20.00;99.90;;;;;;5094804;28;19920;-83
2023/12/30 13:24:33;;;;;;;;;;;20.00;99.90;;;;;;5096014;28;20024;-83
2023/12/30 13:26:59;;;;;;;;;;;19.70;99.90;;;;;;5094445;28;19916;-82
2023/12/30 13:29:26;;;;;;;;;;;19.70;99.90;;;;;;5094414;28;20383;-82
2023/12/30 13:31:55;;;;;;;;;;;19.50;99.90;;;;;;5096167;28;19916;-80
2023/12/30 13:34:21;;;;;;;;;;;19.40;99.90;;;;;;5096303;28;19947;-83
2023/12/30 13:36:49;;;;;;;;;;;19.40;99.90;;;;;;5095867;28;20016;-83
2023/12/30 13:39:16;;;;;;;;;;;19.30;99.90;;;;;;5094418;28;19914;-84
2023/12/30 13:41:42;;;;;;;;;;;19.30;99.90;;;;;;5095806;28;20264;-84
2023/12/30 13:44:14;;;;;;;;;;;19.30;99.90;;;;;;5095869;28;20065;-84
2023/12/30 13:51:40;;;;;;;;;;;19.30;99.90;;;;;;5095592;28;20372;-85
2023/12/30 13:54:08;;;;;;;;;;;19.40;99.90;;;;;;5094937;28;20279;-84
2023/12/30 13:56:36;;;;;;;;;;;19.30;99.90;;;;;;5096061;28;19914;-84
2023/12/30 13:59:12;;;;;;;;;;;19.30;99.90;;;;;;5093801;28;19961;-79
2023/12/30 14:01:38;;;;;;;;;;;19.20;99.90;;;;;;5095521;28;19908;-83
2023/12/30 14:04:06;;;;;;;;;;;19.10;99.90;;;;;;5095108;28;19915;-81
2023/12/30 14:06:36;;;;;;;;;;;19.00;99.90;;;;;;5095816;28;20015;-82
2023/12/30 14:11:48;;;;;;;;;;;19.10;99.90;;;;;;5095314;28;20492;-82
2023/12/30 14:14:15;;;;;;;;;;;19.10;99.90;;;;;;5093778;28;19908;-82
2023/12/30 14:16:43;;;;;;;;;;;19.00;99.90;;;;;;5095341;28;19915;-81
2023/12/30 14:19:10;;;;;;;;;;;18.80;99.90;;;;;;5094690;28;20038;-83
2023/12/30 14:21:36;;;;;;;;;;;18.70;99.90;;;;;;5094655;28;19916;-81
2023/12/30 14:24:02;;;;;;;;;;;18.70;99.90;;;;;;5093207;28;19912;-83
2023/12/30 14:26:28;;;;;;;;;;;18.60;99.90;;;;;;5094826;28;20264;-82